Time;durP1;ratioP1;P1;durP2;ratioP2;P2;SDS_P1;SDS_P2;PMS_P1;PMS_P2;Temp;Humidity;BMP_temperature;BMP_pressure;BME280_temperature;BME280_humidity;BME280_pressure;Samples;Min_cycle;Max_cycle;Signal;HPM_P1;HPM_P2
2022/03/10 00:02:22;;;;;;;8.73;7.13;;;0.00;99.90;;;;;;5068964;28;20269;-71
2022/03/10 00:04:47;;;;;;;7.93;6.90;;;-0.10;99.90;;;;;;5057093;28;20179;-71
2022/03/10 00:07:13;;;;;;;8.50;6.97;;;-0.10;99.90;;;;;;5074023;28;20183;-71
2022/03/10 00:09:38;;;;;;;8.70;7.23;;;-0.10;99.90;;;;;;5074010;28;20183;-71
2022/03/10 00:12:05;;;;;;;9.27;7.30;;;0.00;99.90;;;;;;5056914;28;20198;-71
2022/03/10 00:14:30;;;;;;;8.77;7.03;;;0.10;99.90;;;;;;5073430;28;20186;-71
2022/03/10 00:16:56;;;;;;;6.90;6.20;;;0.20;99.90;;;;;;5073555;28;20207;-71
2022/03/10 00:19:22;;;;;;;9.20;7.03;;;0.30;99.90;;;;;;5073575;28;20182;-69
2022/03/10 00:21:49;;;;;;;7.87;7.00;;;0.30;99.90;;;;;;5065115;28;20576;-72
2022/03/10 00:24:16;;;;;;;10.57;7.53;;;0.30;99.90;;;;;;5073749;28;20195;-71
2022/03/10 00:26:46;;;;;;;7.80;6.57;;;0.30;99.90;;;;;;5074003;28;20197;-71
2022/03/10 00:29:12;;;;;;;7.73;6.70;;;0.20;99.90;;;;;;5069404;28;20230;-71
2022/03/10 00:31:37;;;;;;;9.50;6.57;;;0.10;99.90;;;;;;5063299;28;20179;-71
2022/03/10 00:34:03;;;;;;;8.20;6.73;;;0.10;99.90;;;;;;5073763;28;20257;-72
2022/03/10 00:36:29;;;;;;;8.77;6.73;;;-0.10;99.90;;;;;;5073344;28;20203;-71
2022/03/10 00:38:55;;;;;;;10.93;7.20;;;-0.20;99.90;;;;;;5071591;28;20597;-70
2022/03/10 00:41:20;;;;;;;8.60;7.07;;;-0.20;99.90;;;;;;5073360;28;20194;-69
2022/03/10 00:43:46;;;;;;;7.93;7.17;;;-0.30;99.90;;;;;;5073363;28;20199;-69
2022/03/10 00:46:11;;;;;;;9.67;7.60;;;-0.30;99.90;;;;;;5070690;28;20658;-70
2022/03/10 00:48:37;;;;;;;9.53;7.43;;;-0.30;99.90;;;;;;5053510;28;20180;-71
2022/03/10 00:51:04;;;;;;;10.93;7.93;;;-0.30;99.90;;;;;;5053509;28;20211;-71
2022/03/10 00:53:30;;;;;;;9.27;7.57;;;-0.40;99.90;;;;;;5061074;28;20199;-71
2022/03/10 00:55:56;;;;;;;8.67;7.20;;;-0.40;99.90;;;;;;5068379;28;20245;-71
2022/03/10 00:58:21;;;;;;;10.07;7.63;;;-0.50;99.90;;;;;;5053303;28;20305;-71
2022/03/10 01:00:47;;;;;;;9.07;7.13;;;-0.50;99.90;;;;;;5053100;28;20172;-71
2022/03/10 01:03:13;;;;;;;11.47;7.73;;;-0.60;99.90;;;;;;5053268;28;20194;-72
2022/03/10 01:05:38;;;;;;;10.00;7.60;;;-0.50;99.90;;;;;;5062969;28;20179;-71
2022/03/10 01:08:04;;;;;;;12.67;8.83;;;-0.60;99.90;;;;;;5073102;28;20179;-72
2022/03/10 01:10:30;;;;;;;12.37;7.63;;;-0.60;99.90;;;;;;5073123;28;20452;-72
2022/03/10 01:12:56;;;;;;;9.73;7.57;;;-0.40;99.90;;;;;;5068579;28;20212;-71
2022/03/10 01:15:24;;;;;;;9.97;7.40;;;-0.40;99.90;;;;;;5052418;28;20172;-71
2022/03/10 01:17:50;;;;;;;9.47;7.87;;;-0.40;99.90;;;;;;5066907;28;20704;-71
2022/03/10 01:20:17;;;;;;;9.17;7.60;;;-0.40;99.90;;;;;;5072851;28;20246;-74
2022/03/10 01:22:43;;;;;;;10.80;8.10;;;-0.50;99.90;;;;;;5068609;28;20207;-74
2022/03/10 01:25:10;;;;;;;8.10;7.10;;;-0.50;99.90;;;;;;5057458;28;20187;-72
2022/03/10 01:27:36;;;;;;;7.70;6.67;;;-0.50;99.90;;;;;;5071817;28;20183;-72
2022/03/10 01:30:03;;;;;;;8.77;7.70;;;-0.60;99.90;;;;;;5072727;28;20171;-73
2022/03/10 01:32:29;;;;;;;10.00;8.77;;;-0.70;99.90;;;;;;5069874;28;20219;-72
2022/03/10 01:34:55;;;;;;;9.63;8.13;;;-0.80;99.90;;;;;;5055861;28;20215;-73
2022/03/10 01:37:20;;;;;;;10.43;7.93;;;-0.90;99.90;;;;;;5072378;28;20225;-72
2022/03/10 01:39:47;;;;;;;10.17;7.37;;;-1.00;99.90;;;;;;5072668;28;20171;-73
2022/03/10 01:42:13;;;;;;;8.93;7.30;;;-1.00;99.90;;;;;;5062300;28;20257;-74
2022/03/10 01:44:39;;;;;;;9.43;7.53;;;-1.00;99.90;;;;;;5064260;28;20229;-73
2022/03/10 01:47:10;;;;;;;8.80;7.13;;;-1.00;99.90;;;;;;5078705;28;20674;-74
2022/03/10 01:49:36;;;;;;;9.40;7.27;;;-1.00;99.90;;;;;;5070782;28;20190;-74
2022/03/10 01:52:03;;;;;;;10.17;7.43;;;-1.00;99.90;;;;;;5079532;28;20178;-74
2022/03/10 01:54:30;;;;;;;8.40;7.40;;;-1.00;99.90;;;;;;5067716;28;20187;-74
2022/03/10 01:56:56;;;;;;;9.73;7.17;;;-1.00;99.90;;;;;;5080865;28;20210;-74
2022/03/10 01:59:22;;;;;;;12.27;8.20;;;-1.00;99.90;;;;;;5072245;28;20179;-74
2022/03/10 02:01:48;;;;;;;10.00;7.50;;;-1.00;99.90;;;;;;5070503;28;20258;-73
2022/03/10 02:04:14;;;;;;;8.47;7.37;;;-0.90;99.90;;;;;;5085452;28;20281;-74
2022/03/10 02:06:39;;;;;;;9.07;7.13;;;-0.90;99.90;;;;;;5079842;28;20182;-73
2022/03/10 02:11:51;;;;;;;7.53;6.47;;;-0.90;99.90;;;;;;5072323;28;20320;-73
2022/03/10 02:19:46;;;;;;;8.07;6.77;;;-0.80;99.90;;;;;;5081828;28;20282;-73
2022/03/10 02:22:14;;;;;;;7.33;6.63;;;-0.90;99.90;;;;;;5067409;28;20179;-73
2022/03/10 02:24:44;;;;;;;8.53;7.60;;;-1.00;99.90;;;;;;5059780;28;20214;-72
2022/03/10 02:27:24;;;;;;;12.00;7.73;;;-1.00;99.90;;;;;;5069880;28;20575;-74
2022/03/10 02:29:55;;;;;;;9.17;7.73;;;-1.10;99.90;;;;;;5066458;28;20179;-73
2022/03/10 02:32:21;;;;;;;9.73;8.00;;;-1.10;99.90;;;;;;5067525;28;20214;-73
2022/03/10 02:34:47;;;;;;;9.43;7.27;;;-1.10;99.90;;;;;;5070989;28;20701;-73
2022/03/10 02:37:14;;;;;;;9.13;7.23;;;-1.20;99.90;;;;;;5070753;28;20340;-73
2022/03/10 02:39:40;;;;;;;10.30;7.83;;;-1.20;99.90;;;;;;5070839;28;20199;-73
2022/03/10 02:42:07;;;;;;;11.10;7.23;;;-1.20;99.90;;;;;;5070082;28;20187;-73
2022/03/10 02:44:33;;;;;;;10.27;8.43;;;-1.20;99.90;;;;;;5069910;28;20289;-73
2022/03/10 02:46:59;;;;;;;8.20;7.40;;;-1.30;99.90;;;;;;5075491;28;20182;-73
2022/03/10 02:49:25;;;;;;;7.90;7.10;;;-1.40;99.90;;;;;;5071977;28;20252;-73
2022/03/10 02:51:51;;;;;;;9.13;7.60;;;-1.50;99.90;;;;;;5071084;28;20221;-73
2022/03/10 02:54:17;;;;;;;11.57;8.60;;;-1.60;99.90;;;;;;5068215;28;20205;-73
2022/03/10 02:56:43;;;;;;;9.63;7.83;;;-1.60;99.90;;;;;;5070376;28;20223;-73
2022/03/10 02:59:10;;;;;;;10.40;8.30;;;-1.70;99.90;;;;;;5069103;28;20673;-74
2022/03/10 03:01:36;;;;;;;12.40;7.87;;;-1.70;99.90;;;;;;5071122;28;20254;-75
2022/03/10 03:04:02;;;;;;;10.80;7.87;;;-1.70;99.90;;;;;;5061567;28;20222;-74
2022/03/10 03:06:27;;;;;;;8.73;7.33;;;-1.70;99.90;;;;;;5067468;28;20658;-73
2022/03/10 03:08:53;;;;;;;9.83;7.20;;;-1.70;99.90;;;;;;5070591;28;20248;-74
2022/03/10 03:11:19;;;;;;;12.30;8.90;;;-1.50;99.90;;;;;;5070766;28;20186;-73
2022/03/10 03:13:44;;;;;;;11.47;7.53;;;-1.40;99.90;;;;;;5070805;28;20282;-72
2022/03/10 03:16:10;;;;;;;9.77;7.87;;;-1.40;99.90;;;;;;5065252;28;20556;-72
2022/03/10 03:18:35;;;;;;;7.73;7.00;;;-1.40;99.90;;;;;;5074400;28;20171;-72
2022/03/10 03:21:01;;;;;;;11.33;7.93;;;-1.40;99.90;;;;;;5082850;28;20178;-73
2022/03/10 03:23:27;;;;;;;7.83;7.03;;;-1.50;99.90;;;;;;5067478;28;20227;-74
2022/03/10 03:25:53;;;;;;;9.60;7.77;;;-1.60;99.90;;;;;;5077335;28;20194;-74
2022/03/10 03:28:22;;;;;;;8.80;6.73;;;-1.50;99.90;;;;;;5085454;28;20189;-74
2022/03/10 03:30:51;;;;;;;8.87;7.97;;;-1.50;99.90;;;;;;5090157;28;20186;-72
2022/03/10 03:33:17;;;;;;;8.97;7.53;;;-1.50;99.90;;;;;;5056107;28;20211;-73
2022/03/10 03:35:43;;;;;;;7.97;7.17;;;-1.60;99.90;;;;;;5050508;28;20172;-72
2022/03/10 03:38:09;;;;;;;11.37;8.00;;;-1.70;99.90;;;;;;5051078;28;20207;-73
2022/03/10 03:40:35;;;;;;;7.97;7.17;;;-1.80;99.90;;;;;;5051080;28;20180;-73
2022/03/10 03:43:01;;;;;;;11.03;7.23;;;-1.90;99.90;;;;;;5050865;28;20196;-72
2022/03/10 03:45:27;;;;;;;8.80;7.60;;;-1.90;99.90;;;;;;5068535;28;20182;-73
2022/03/10 03:47:53;;;;;;;9.40;7.57;;;-1.90;99.90;;;;;;5070986;28;20187;-72
2022/03/10 03:50:19;;;;;;;8.67;7.07;;;-1.90;99.90;;;;;;5071206;28;20607;-72
2022/03/10 03:52:45;;;;;;;10.77;7.93;;;-1.90;99.90;;;;;;5074468;28;20290;-73
2022/03/10 03:55:11;;;;;;;9.47;8.37;;;-1.80;99.90;;;;;;5073555;28;20201;-73
2022/03/10 03:57:37;;;;;;;8.70;7.77;;;-1.90;99.90;;;;;;5074420;28;20574;-74
2022/03/10 04:00:04;;;;;;;10.57;7.90;;;-1.90;99.90;;;;;;5062675;28;20180;-74
2022/03/10 04:02:31;;;;;;;10.57;7.13;;;-2.00;99.90;;;;;;5054555;28;20188;-74
2022/03/10 04:04:56;;;;;;;8.53;7.23;;;-2.00;99.90;;;;;;5054212;28;20176;-74
2022/03/10 04:07:22;;;;;;;8.90;7.33;;;-2.00;99.90;;;;;;5072021;28;20232;-74
2022/03/10 04:09:48;;;;;;;8.27;7.20;;;-1.90;99.90;;;;;;5061582;28;20259;-74
2022/03/10 04:12:14;;;;;;;9.23;7.10;;;-1.90;99.90;;;;;;5056292;28;20266;-74
2022/03/10 04:14:39;;;;;;;10.20;8.00;;;-2.00;99.90;;;;;;5073778;28;20262;-74
2022/03/10 04:17:06;;;;;;;8.10;7.03;;;-2.00;99.90;;;;;;5078289;28;20203;-74
2022/03/10 04:19:31;;;;;;;8.40;7.03;;;-2.00;99.90;;;;;;5082528;28;20210;-73
2022/03/10 04:21:57;;;;;;;9.10;6.53;;;-2.00;99.90;;;;;;5073789;28;20198;-74
2022/03/10 04:24:23;;;;;;;8.23;7.40;;;-2.00;99.90;;;;;;5091902;28;20619;-73
2022/03/10 04:26:48;;;;;;;10.27;7.30;;;-2.00;99.90;;;;;;5092337;28;20202;-73
2022/03/10 04:29:14;;;;;;;8.83;6.90;;;-2.00;99.90;;;;;;5085503;28;20183;-74
2022/03/10 04:31:41;;;;;;;9.20;7.40;;;-2.00;99.90;;;;;;5074699;28;20180;-74
2022/03/10 04:34:06;;;;;;;9.03;6.93;;;-1.90;99.90;;;;;;5053865;28;20195;-73
2022/03/10 04:36:32;;;;;;;9.23;7.20;;;-1.90;99.90;;;;;;5053408;28;20708;-73
2022/03/10 04:38:57;;;;;;;8.30;6.70;;;-1.90;99.90;;;;;;5054150;28;20171;-73
2022/03/10 04:41:23;;;;;;;7.77;7.00;;;-2.00;99.90;;;;;;5063973;28;20191;-73
2022/03/10 04:43:49;;;;;;;8.67;7.10;;;-1.90;99.90;;;;;;5081049;28;20203;-74
2022/03/10 04:46:14;;;;;;;10.50;7.37;;;-2.00;99.90;;;;;;5073243;28;20175;-73
2022/03/10 04:48:40;;;;;;;8.90;7.00;;;-2.00;99.90;;;;;;5073058;28;20257;-73
2022/03/10 04:51:06;;;;;;;7.83;6.77;;;-2.00;99.90;;;;;;5060113;28;20183;-72
2022/03/10 04:53:31;;;;;;;10.30;7.70;;;-1.90;99.90;;;;;;5084565;28;20213;-72
2022/03/10 04:55:57;;;;;;;9.47;7.40;;;-1.90;99.90;;;;;;5079847;28;20179;-72
2022/03/10 04:58:23;;;;;;;8.67;6.87;;;-1.90;99.90;;;;;;5078730;28;20256;-74
2022/03/10 05:00:48;;;;;;;8.33;7.53;;;-2.00;99.90;;;;;;5073085;28;20183;-74
2022/03/10 05:03:15;;;;;;;7.93;7.13;;;-2.20;99.90;;;;;;5070963;28;20309;-73
2022/03/10 05:05:40;;;;;;;8.47;7.43;;;-2.30;99.90;;;;;;5067538;28;20228;-74
2022/03/10 05:08:06;;;;;;;9.37;7.30;;;-2.10;99.90;;;;;;5076464;28;20613;-74
2022/03/10 05:10:32;;;;;;;7.47;6.57;;;-2.00;99.90;;;;;;5071067;28;20248;-74
2022/03/10 05:13:01;;;;;;;10.77;7.43;;;-1.90;99.90;;;;;;5067721;28;20203;-73
2022/03/10 05:15:30;;;;;;;9.00;7.33;;;-1.90;99.90;;;;;;5064375;28;20222;-73
2022/03/10 05:17:57;;;;;;;11.47;7.27;;;-1.90;99.90;;;;;;5073286;28;20258;-74
2022/03/10 05:20:24;;;;;;;10.27;7.60;;;-2.00;99.90;;;;;;5075613;28;20265;-73
2022/03/10 05:23:00;;;;;;;10.37;7.67;;;-2.10;99.90;;;;;;5073042;28;20289;-74
2022/03/10 05:25:35;;;;;;;8.90;7.73;;;-2.20;99.90;;;;;;5072424;28;20209;-73
2022/03/10 05:28:01;;;;;;;11.23;7.87;;;-2.30;99.90;;;;;;5071624;28;20183;-74
2022/03/10 05:30:27;;;;;;;8.90;7.93;;;-2.40;99.90;;;;;;5075854;28;20189;-74
2022/03/10 05:32:52;;;;;;;9.27;7.27;;;-2.50;99.90;;;;;;5091420;28;20202;-74
2022/03/10 05:35:18;;;;;;;9.53;7.93;;;-2.50;99.90;;;;;;5063801;28;20187;-74
2022/03/10 05:37:46;;;;;;;12.43;7.37;;;-2.50;99.90;;;;;;5059951;28;20216;-74
2022/03/10 05:40:18;;;;;;;10.60;7.87;;;-2.50;99.90;;;;;;5060281;28;20175;-74
2022/03/10 05:42:44;;;;;;;8.17;7.30;;;-2.50;99.90;;;;;;5066096;28;20218;-73
2022/03/10 05:45:11;;;;;;;10.57;7.73;;;-2.40;99.90;;;;;;5069110;28;20167;-72
2022/03/10 05:47:38;;;;;;;9.37;7.33;;;-2.40;99.90;;;;;;5068130;28;21130;-72
2022/03/10 05:50:05;;;;;;;10.07;7.30;;;-2.20;99.90;;;;;;5082638;28;20174;-72
2022/03/10 05:52:31;;;;;;;8.60;7.67;;;-2.20;99.90;;;;;;5080269;28;20249;-72
2022/03/10 05:54:57;;;;;;;12.47;7.87;;;-2.20;99.90;;;;;;5076222;28;20197;-72
2022/03/10 05:57:22;;;;;;;9.90;7.73;;;-2.30;99.90;;;;;;5072165;28;20203;-72
2022/03/10 05:59:48;;;;;;;9.30;8.30;;;-2.30;99.90;;;;;;5068596;28;20185;-73
2022/03/10 06:02:17;;;;;;;9.73;7.30;;;-2.30;99.90;;;;;;5066727;28;20265;-73
2022/03/10 06:04:44;;;;;;;9.03;7.00;;;-2.30;99.90;;;;;;5066148;28;20328;-73
2022/03/10 06:07:10;;;;;;;8.33;7.13;;;-2.20;99.90;;;;;;5078059;28;20213;-73
2022/03/10 06:09:36;;;;;;;10.57;7.37;;;-2.10;99.90;;;;;;5066114;28;20206;-74
2022/03/10 06:12:01;;;;;;;9.33;7.00;;;-2.00;99.90;;;;;;5061903;28;20183;-74
2022/03/10 06:14:27;;;;;;;8.50;7.20;;;-1.80;99.90;;;;;;5059531;28;20638;-73
2022/03/10 06:16:53;;;;;;;11.53;8.60;;;-1.70;99.90;;;;;;5058654;28;20211;-73
2022/03/10 06:19:19;;;;;;;9.23;7.80;;;-1.70;99.90;;;;;;5082651;28;20182;-74
2022/03/10 06:21:45;;;;;;;13.90;8.60;;;-1.80;99.90;;;;;;5076008;28;20184;-74
2022/03/10 06:24:11;;;;;;;9.63;8.33;;;-1.70;99.90;;;;;;5069089;28;20199;-73
2022/03/10 06:26:37;;;;;;;12.03;8.10;;;-1.70;99.90;;;;;;5062864;28;20688;-73
2022/03/10 06:29:04;;;;;;;8.47;7.53;;;-1.60;99.90;;;;;;5067827;28;20197;-73
2022/03/10 06:31:30;;;;;;;8.50;7.57;;;-1.60;99.90;;;;;;5064368;28;20187;-75
2022/03/10 06:33:56;;;;;;;10.20;7.50;;;-1.50;99.90;;;;;;5059696;28;20210;-75
2022/03/10 06:36:22;;;;;;;9.33;7.37;;;-1.40;99.90;;;;;;5060337;28;20178;-75
2022/03/10 06:38:47;;;;;;;10.63;8.23;;;-1.40;99.90;;;;;;5067979;28;20171;-73
2022/03/10 06:41:13;;;;;;;9.97;8.43;;;-1.40;99.90;;;;;;5064167;28;20187;-75
2022/03/10 06:43:39;;;;;;;15.33;8.60;;;-1.40;99.90;;;;;;5073412;28;20706;-75
2022/03/10 06:46:06;;;;;;;10.60;8.77;;;-1.30;99.90;;;;;;5058907;28;20384;-76
2022/03/10 06:48:32;;;;;;;8.63;7.30;;;-1.20;99.90;;;;;;5063027;28;20188;-77
2022/03/10 06:50:58;;;;;;;8.70;7.37;;;-1.20;99.90;;;;;;5062651;28;20607;-76
2022/03/10 06:53:23;;;;;;;11.63;7.97;;;-1.10;99.90;;;;;;5075047;28;20244;-76
2022/03/10 06:55:49;;;;;;;10.27;8.50;;;-0.90;99.90;;;;;;5053150;28;20184;-74
2022/03/10 06:58:15;;;;;;;12.90;8.17;;;-0.80;99.90;;;;;;5061338;28;20558;-74
2022/03/10 07:00:40;;;;;;;10.47;8.67;;;-0.60;99.90;;;;;;5071023;28;20179;-74
2022/03/10 07:03:06;;;;;;;9.63;7.60;;;-0.50;99.90;;;;;;5071573;28;20199;-73
2022/03/10 07:05:32;;;;;;;13.23;8.87;;;-0.40;99.90;;;;;;5071302;28;20171;-74
2022/03/10 07:07:58;;;;;;;10.67;7.90;;;-0.40;99.90;;;;;;5066792;28;20602;-73
2022/03/10 07:10:24;;;;;;;9.80;7.43;;;-0.30;99.90;;;;;;5065997;28;20580;-73
2022/03/10 07:12:50;;;;;;;11.47;7.70;;;-0.20;99.90;;;;;;5081504;28;20195;-74
2022/03/10 07:15:15;;;;;;;10.33;7.60;;;0.00;99.90;;;;;;5073606;28;20567;-73
2022/03/10 07:17:42;;;;;;;12.50;7.70;;;0.00;99.90;;;;;;5066233;28;20234;-71
2022/03/10 07:20:09;;;;;;;14.03;8.20;;;0.10;99.90;;;;;;5074765;28;20221;-75
2022/03/10 07:22:35;;;;;;;8.77;7.40;;;0.10;99.90;;;;;;5062812;28;20283;-70
2022/03/10 07:25:01;;;;;;;13.13;8.07;;;0.10;99.90;;;;;;5060081;28;20211;-71
2022/03/10 07:27:27;;;;;;;8.87;7.23;;;0.20;99.90;;;;;;5055396;28;20180;-73
2022/03/10 07:29:53;;;;;;;8.20;6.87;;;0.20;99.90;;;;;;5054942;28;20666;-68
2022/03/10 07:32:18;;;;;;;9.80;7.63;;;0.30;99.90;;;;;;5067095;28;20207;-71
2022/03/10 07:34:48;;;;;;;10.47;8.33;;;0.40;99.90;;;;;;5065821;28;20188;-72
2022/03/10 07:37:16;;;;;;;9.70;7.70;;;0.40;99.90;;;;;;5054515;28;20203;-70
2022/03/10 07:39:42;;;;;;;11.03;7.37;;;0.50;99.90;;;;;;5070933;28;20171;-69
2022/03/10 07:42:08;;;;;;;10.20;8.20;;;0.60;99.90;;;;;;5068266;28;20183;-70
2022/03/10 07:44:34;;;;;;;9.77;7.57;;;0.60;99.90;;;;;;5074658;28;20167;-74
2022/03/10 07:47:00;;;;;;;8.43;6.93;;;0.70;99.90;;;;;;5073851;28;20261;-73
2022/03/10 07:49:25;;;;;;;12.00;7.93;;;0.80;99.90;;;;;;5064553;28;20230;-72
2022/03/10 07:51:51;;;;;;;10.27;7.90;;;0.90;99.90;;;;;;5068881;28;20202;-71
2022/03/10 07:54:17;;;;;;;9.77;7.40;;;1.00;99.90;;;;;;5067340;28;20692;-72
2022/03/10 07:56:42;;;;;;;10.10;8.03;;;1.20;99.90;;;;;;5070292;28;20208;-71
2022/03/10 07:59:08;;;;;;;12.37;7.67;;;1.20;99.90;;;;;;5064757;28;20207;-71
2022/03/10 08:01:34;;;;;;;12.70;7.87;;;1.30;99.90;;;;;;5058420;28;20179;-71
2022/03/10 08:03:59;;;;;;;12.73;8.97;;;1.30;99.90;;;;;;5072557;28;20203;-71
2022/03/10 08:06:27;;;;;;;9.43;7.90;;;1.40;99.90;;;;;;5073988;28;20176;-71
2022/03/10 08:08:53;;;;;;;9.00;7.47;;;1.40;99.90;;;;;;5061328;28;20274;-70
2022/03/10 08:11:19;;;;;;;14.80;8.67;;;1.50;99.90;;;;;;5072508;28;20179;-70
2022/03/10 08:13:45;;;;;;;11.37;7.70;;;1.50;99.90;;;;;;5072608;28;20216;-70
2022/03/10 08:16:11;;;;;;;9.23;7.20;;;1.60;99.90;;;;;;5074992;28;20251;-70
2022/03/10 08:18:37;;;;;;;11.27;8.70;;;1.80;99.90;;;;;;5064216;28;20184;-71
2022/03/10 08:21:03;;;;;;;10.93;8.00;;;1.90;99.90;;;;;;5086239;28;20227;-71
2022/03/10 08:23:28;;;;;;;8.87;7.37;;;2.00;99.90;;;;;;5074144;28;20226;-71
2022/03/10 08:25:55;;;;;;;11.20;7.50;;;2.20;99.90;;;;;;5059205;28;20283;-70
2022/03/10 08:28:21;;;;;;;9.70;7.50;;;2.20;99.90;;;;;;5069293;28;20179;-70
2022/03/10 08:30:46;;;;;;;9.07;7.93;;;2.40;99.90;;;;;;5060037;28;20179;-70
2022/03/10 08:33:12;;;;;;;14.83;7.67;;;2.60;99.90;;;;;;5073571;28;20214;-68
2022/03/10 08:35:38;;;;;;;10.57;7.77;;;2.70;99.90;;;;;;5061126;28;20187;-71
2022/03/10 08:38:03;;;;;;;9.07;8.00;;;2.90;99.90;;;;;;5067532;28;20207;-70
2022/03/10 08:40:29;;;;;;;8.67;7.80;;;2.90;99.90;;;;;;5061503;28;20670;-68
2022/03/10 08:42:55;;;;;;;11.97;8.17;;;3.00;99.90;;;;;;5090081;28;20205;-69
2022/03/10 08:45:25;;;;;;;12.83;8.27;;;3.20;99.90;;;;;;5072776;28;20263;-68
2022/03/10 08:47:51;;;;;;;13.77;8.93;;;3.30;99.90;;;;;;5073680;28;20542;-71
2022/03/10 08:50:16;;;;;;;11.43;7.73;;;3.30;99.90;;;;;;5073214;28;20180;-69
2022/03/10 08:52:42;;;;;;;11.57;8.40;;;3.50;99.90;;;;;;5073536;28;20206;-68
2022/03/10 08:55:08;;;;;;;12.20;8.00;;;3.60;99.90;;;;;;5054287;28;20194;-69
2022/03/10 08:57:34;;;;;;;11.33;7.73;;;3.80;99.90;;;;;;5070515;28;20274;-70
2022/03/10 09:00:00;;;;;;;10.73;7.23;;;4.00;99.90;;;;;;5072960;28;20601;-69
2022/03/10 09:02:25;;;;;;;10.23;8.63;;;4.40;99.90;;;;;;5061332;28;20199;-73
2022/03/10 09:04:51;;;;;;;13.07;7.30;;;4.90;99.90;;;;;;5052886;28;20510;-72
2022/03/10 09:07:17;;;;;;;10.90;7.53;;;5.70;99.90;;;;;;5053069;28;20183;-70
2022/03/10 09:09:42;;;;;;;14.87;9.10;;;6.10;99.90;;;;;;5055298;28;20188;-71
2022/03/10 09:12:08;;;;;;;11.23;8.33;;;6.30;99.90;;;;;;5074865;28;20193;-72
2022/03/10 09:14:34;;;;;;;9.90;7.63;;;6.30;99.90;;;;;;5084702;28;20550;-71
2022/03/10 09:17:00;;;;;;;11.17;8.47;;;6.30;99.90;;;;;;5067820;28;20202;-72
2022/03/10 09:19:25;;;;;;;12.17;7.67;;;6.30;99.90;;;;;;5063655;28;20543;-72
2022/03/10 09:21:52;;;;;;;10.27;7.37;;;6.20;99.90;;;;;;5071964;28;20175;-74
2022/03/10 09:24:18;;;;;;;13.87;7.37;;;7.40;99.90;;;;;;5071263;28;20284;-74
2022/03/10 09:26:44;;;;;;;10.48;7.43;;;10.30;93.80;;;;;;5073189;28;20229;-76
2022/03/10 09:29:09;;;;;;;13.55;8.05;;;13.00;78.50;;;;;;5067314;28;20257;-74
2022/03/10 09:31:35;;;;;;;13.15;8.07;;;15.70;64.30;;;;;;5067030;28;20285;-76
2022/03/10 09:34:01;;;;;;;11.57;7.70;;;18.00;54.20;;;;;;5077331;28;20211;-76
2022/03/10 09:36:26;;;;;;;9.82;8.07;;;19.90;49.40;;;;;;5073208;28;20171;-74
2022/03/10 09:38:53;;;;;;;8.05;6.78;;;21.60;46.00;;;;;;5054649;28;20581;-78
2022/03/10 09:41:19;;;;;;;9.50;6.85;;;22.90;42.00;;;;;;5060998;28;20181;-75
2022/03/10 09:43:46;;;;;;;7.40;6.68;;;23.90;40.40;;;;;;5073403;28;20191;-71
2022/03/10 09:46:12;;;;;;;8.13;7.30;;;23.90;38.10;;;;;;5069824;28;20180;-74
2022/03/10 09:48:39;;;;;;;7.40;6.75;;;24.50;37.40;;;;;;5065672;28;20187;-74
2022/03/10 09:51:06;;;;;;;8.27;7.45;;;25.20;36.60;;;;;;5071195;28;20205;-72
2022/03/10 09:53:34;;;;;;;7.60;6.40;;;24.90;35.50;;;;;;5068845;28;20575;-72
2022/03/10 09:56:01;;;;;;;8.85;7.10;;;24.80;36.80;;;;;;5069719;28;20241;-72
2022/03/10 09:58:27;;;;;;;8.32;7.57;;;25.80;35.90;;;;;;5077937;28;20195;-73
2022/03/10 10:01:08;;;;;;;7.68;6.90;;;26.40;34.30;;;;;;5076420;28;20183;-73
2022/03/10 10:03:34;;;;;;;7.80;7.00;;;26.50;34.00;;;;;;5080429;28;20691;-73
2022/03/10 10:06:03;;;;;;;8.13;7.32;;;26.00;34.60;;;;;;5075346;28;20182;-72
2022/03/10 10:08:31;;;;;;;7.78;6.82;;;26.70;34.50;;;;;;5068473;28;20649;-73
2022/03/10 10:10:59;;;;;;;7.80;7.10;;;27.60;34.50;;;;;;5071989;28;20316;-73
2022/03/10 10:13:26;;;;;;;8.45;7.72;;;28.20;33.40;;;;;;5068729;28;20731;-72
2022/03/10 10:16:03;;;;;;;8.55;7.45;;;28.20;31.70;;;;;;5057194;28;20176;-76
2022/03/10 10:18:30;;;;;;;7.93;7.13;;;27.80;32.30;;;;;;5055279;28;20205;-76
2022/03/10 10:20:56;;;;;;;8.23;7.22;;;28.10;32.00;;;;;;5070953;28;20721;-75
2022/03/10 10:23:27;;;;;;;9.68;7.65;;;28.90;31.10;;;;;;5061611;28;20294;-75
2022/03/10 10:25:56;;;;;;;8.30;7.35;;;28.50;32.00;;;;;;5069935;28;20649;-74
2022/03/10 10:28:45;;;;;;;9.63;8.05;;;28.80;31.90;;;;;;5071096;28;20199;-74
2022/03/10 10:31:19;;;;;;;8.85;7.95;;;29.20;30.60;;;;;;5070942;28;20195;-74
2022/03/10 10:34:11;;;;;;;9.35;7.90;;;29.90;30.50;;;;;;5071984;28;20268;-74
2022/03/10 10:36:41;;;;;;;9.13;8.30;;;30.10;30.10;;;;;;5069500;28;20268;-73
2022/03/10 10:39:12;;;;;;;9.57;8.07;;;30.00;31.00;;;;;;5071886;28;20187;-73
2022/03/10 10:41:40;;;;;;;9.02;8.15;;;30.10;30.00;;;;;;5061858;28;20179;-76
2022/03/10 10:44:08;;;;;;;9.80;8.90;;;30.40;29.60;;;;;;5069646;28;20195;-77
2022/03/10 10:46:39;;;;;;;9.73;8.82;;;31.20;29.50;;;;;;5065358;28;20225;-76
2022/03/10 10:49:15;;;;;;;9.80;8.80;;;29.60;29.70;;;;;;5064746;28;20179;-73
2022/03/10 10:51:46;;;;;;;9.32;8.52;;;29.50;30.00;;;;;;5065509;28;20225;-75
2022/03/10 10:54:21;;;;;;;9.02;8.32;;;29.20;29.50;;;;;;5063948;28;20206;-74
2022/03/10 10:56:48;;;;;;;9.05;8.35;;;29.90;29.60;;;;;;5061504;28;20198;-74
2022/03/10 10:59:36;;;;;;;9.48;8.68;;;29.40;29.40;;;;;;5064906;28;20167;-74
2022/03/10 11:02:11;;;;;;;9.13;8.30;;;27.90;30.80;;;;;;5068423;28;20554;-73
2022/03/10 11:04:40;;;;;;;9.75;8.80;;;28.30;30.70;;;;;;5068061;28;20183;-74
2022/03/10 11:07:08;;;;;;;9.73;8.82;;;28.60;30.00;;;;;;5066958;28;20592;-74
2022/03/10 11:09:34;;;;;;;9.90;8.90;;;28.60;30.90;;;;;;5083275;28;20182;-74
2022/03/10 11:12:00;;;;;;;10.07;9.15;;;28.80;30.00;;;;;;5094812;28;20186;-74
2022/03/10 11:14:26;;;;;;;9.43;8.63;;;29.90;29.80;;;;;;5074188;28;20215;-74
2022/03/10 11:16:53;;;;;;;10.15;9.07;;;30.60;29.20;;;;;;5076898;28;20536;-74
2022/03/10 11:19:25;;;;;;;10.63;9.55;;;30.30;29.30;;;;;;5074645;28;20168;-74
2022/03/10 11:22:20;;;;;;;10.70;8.93;;;31.60;28.70;;;;;;5074007;28;20217;-75
2022/03/10 11:25:13;;;;;;;10.07;9.05;;;32.80;28.00;;;;;;5057613;28;20176;-75
2022/03/10 11:28:09;;;;;;;9.00;8.27;;;32.90;28.10;;;;;;5061618;28;20187;-75
2022/03/10 11:30:35;;;;;;;9.50;8.57;;;32.30;27.80;;;;;;5076253;28;20232;-74
2022/03/10 11:33:06;;;;;;;9.90;9.00;;;32.10;28.30;;;;;;5081604;28;20206;-72
2022/03/10 11:35:38;;;;;;;9.73;8.70;;;32.90;27.80;;;;;;5075978;28;20207;-72
2022/03/10 11:38:03;;;;;;;8.20;7.50;;;32.80;27.80;;;;;;5069097;28;20285;-72
2022/03/10 11:40:52;;;;;;;8.40;7.65;;;33.00;27.50;;;;;;5066214;28;20316;-72
2022/03/10 11:43:20;;;;;;;9.00;8.30;;;33.60;27.40;;;;;;5074648;28;20199;-72
2022/03/10 11:45:46;;;;;;;9.00;8.13;;;33.40;27.10;;;;;;5078346;28;20174;-69
2022/03/10 11:48:29;;;;;;;9.00;8.05;;;33.20;27.70;;;;;;5091318;28;20170;-71
2022/03/10 11:50:55;;;;;;;8.10;7.43;;;33.50;27.50;;;;;;5066488;28;20186;-71
2022/03/10 11:53:21;;;;;;;9.52;8.63;;;34.00;27.10;;;;;;5069462;28;20301;-70
2022/03/10 11:55:52;;;;;;;8.98;8.18;;;34.90;26.80;;;;;;5074210;28;20182;-72
2022/03/10 11:58:36;;;;;;;10.88;8.82;;;35.50;26.60;;;;;;5072255;28;20202;-72
2022/03/10 12:01:02;;;;;;;8.05;7.45;;;34.40;26.90;;;;;;5083568;28;20171;-72
2022/03/10 12:03:35;;;;;;;9.30;8.50;;;33.90;27.30;;;;;;5070860;28;20201;-72
2022/03/10 12:06:12;;;;;;;8.90;8.13;;;34.40;27.20;;;;;;5074041;28;20641;-72
2022/03/10 12:08:40;;;;;;;7.97;7.18;;;34.60;26.60;;;;;;5070503;28;20174;-74
2022/03/10 12:11:12;;;;;;;8.55;7.38;;;34.60;25.90;;;;;;5078621;28;20174;-71
2022/03/10 12:13:41;;;;;;;8.18;7.57;;;34.30;26.00;;;;;;5078549;28;20195;-71
2022/03/10 12:16:08;;;;;;;7.57;6.88;;;34.10;26.50;;;;;;5074149;28;20231;-73
2022/03/10 12:18:42;;;;;;;7.97;7.13;;;33.40;26.40;;;;;;5066854;28;20217;-73
2022/03/10 12:21:21;;;;;;;6.82;6.32;;;33.00;26.30;;;;;;5055074;28;20162;-71
2022/03/10 12:23:50;;;;;;;6.72;6.22;;;33.40;25.90;;;;;;5060374;28;20675;-72
2022/03/10 12:26:27;;;;;;;6.00;5.55;;;33.30;25.80;;;;;;5074022;28;20193;-72
2022/03/10 12:28:58;;;;;;;6.07;5.53;;;33.70;25.70;;;;;;5054888;28;20214;-72
2022/03/10 12:31:27;;;;;;;6.32;5.75;;;34.00;24.90;;;;;;5055239;28;20642;-72
2022/03/10 12:33:53;;;;;;;6.72;6.18;;;34.30;24.90;;;;;;5065661;28;20209;-73
2022/03/10 12:36:50;;;;;;;6.43;5.93;;;33.40;25.00;;;;;;5073127;28;20179;-73
2022/03/10 12:39:18;;;;;;;6.50;6.00;;;32.30;25.20;;;;;;5074507;28;20185;-74
2022/03/10 12:41:48;;;;;;;8.82;6.32;;;32.00;25.90;;;;;;5057206;28;20241;-71
2022/03/10 12:44:17;;;;;;;7.30;6.63;;;30.80;26.20;;;;;;5053479;28;20572;-73
2022/03/10 12:46:43;;;;;;;7.03;6.43;;;30.70;26.20;;;;;;5054222;28;20174;-70
2022/03/10 12:49:27;;;;;;;7.40;6.70;;;31.60;26.50;;;;;;5065219;28;20314;-71
2022/03/10 12:51:57;;;;;;;7.28;6.57;;;31.70;26.70;;;;;;5068199;28;20190;-71
2022/03/10 12:54:23;;;;;;;6.63;6.13;;;31.70;26.80;;;;;;5075206;28;20205;-71
2022/03/10 12:56:54;;;;;;;7.35;6.47;;;31.80;25.80;;;;;;5070302;28;20233;-71